LFBH

La Rochelle-Île de Ré Airport

Airport
ICAO code
LFBH
IATA Code
LRH
Summary
ICAO Region
EUR
ICAO Territory
Location

, Poitou-Charentes

Serving
La Rochelle
Elevation
74 ft
Coordinates
46° 10' 45" N , 1° 11' 43" W
Metar
Observation
LFBH 281830Z AUTO 17006KT CAVOK 14/09 Q1019 NOSIG
Station
La Rochelle
Date/Time
2023-03-28 18:30:00
Wind direction
170°
Wind speed
06 kts
Lowest cloud amount
clouds and visibility OK
Temperature
14°C
Dew point
9°C
Humidity
71%
QNH
1019 hPa
Weather condition
n/a

Runways

Designator Length Width Surface Rops
10/28 2255 45 ASP No/No

Airport map

Aerial View

SKYbrary Partners:

Safety knowledge contributed by: